Time;durP1;ratioP1;P1;durP2;ratioP2;P2;SDS_P1;SDS_P2;PMS_P1;PMS_P2;Temp;Humidity;BMP_temperature;BMP_pressure;BME280_temperature;BME280_humidity;BME280_pressure;Samples;Min_cycle;Max_cycle;Signal;HPM_P1;HPM_P2
2022/07/02 00:01:10;;;;;;;3.23;2.93;;;17.30;66.20;;;;;;5026460;28;20179;-87
2022/07/02 00:03:37;;;;;;;3.90;2.70;;;17.30;66.30;;;;;;5026381;28;20178;-87
2022/07/02 00:06:05;;;;;;;6.95;2.65;;;17.30;67.30;;;;;;5011566;28;20433;-87
2022/07/02 00:08:32;;;;;;;2.58;2.38;;;17.20;67.50;;;;;;5029869;28;20203;-87
2022/07/02 00:10:59;;;;;;;5.57;2.60;;;17.20;68.10;;;;;;5036593;28;20221;-87
2022/07/02 00:13:27;;;;;;;2.60;2.25;;;17.20;68.30;;;;;;5039353;28;20298;-88
2022/07/02 00:15:53;;;;;;;3.20;2.10;;;17.20;67.90;;;;;;5039610;28;20167;-88
2022/07/02 00:18:20;;;;;;;5.88;2.65;;;17.20;67.30;;;;;;5038639;28;20224;-88
2022/07/02 00:20:47;;;;;;;3.25;2.20;;;17.20;67.60;;;;;;5036565;28;20181;-89
2022/07/02 00:23:12;;;;;;;3.70;2.20;;;17.30;67.20;;;;;;5036305;28;20174;-89
2022/07/02 00:25:41;;;;;;;4.43;2.20;;;17.30;66.50;;;;;;5037575;28;20183;-88
2022/07/02 00:28:07;;;;;;;2.88;2.10;;;17.30;66.30;;;;;;5038499;28;20457;-87
2022/07/02 00:30:37;;;;;;;2.63;2.20;;;17.40;66.50;;;;;;5029954;28;20245;-87
2022/07/02 00:33:03;;;;;;;4.65;2.53;;;17.30;65.80;;;;;;5029951;28;20433;-88
2022/07/02 00:35:30;;;;;;;3.43;2.37;;;17.40;65.30;;;;;;5027131;28;20194;-87
2022/07/02 00:37:57;;;;;;;4.60;2.20;;;17.40;65.80;;;;;;5042454;28;20206;-87
2022/07/02 00:40:24;;;;;;;5.50;2.28;;;17.40;65.10;;;;;;5039891;28;20185;-86
2022/07/02 00:42:50;;;;;;;3.55;2.30;;;17.40;64.80;;;;;;5037189;28;20231;-86
2022/07/02 00:45:20;;;;;;;3.00;2.30;;;17.40;65.30;;;;;;5035409;28;20273;-86
2022/07/02 00:47:47;;;;;;;4.38;2.10;;;17.40;64.90;;;;;;5035335;28;20299;-86
2022/07/02 00:50:13;;;;;;;6.05;2.35;;;17.50;64.70;;;;;;5035971;28;20201;-86
2022/07/02 00:52:38;;;;;;;2.93;2.10;;;17.50;64.90;;;;;;5036354;28;20193;-85
2022/07/02 00:55:08;;;;;;;5.43;2.50;;;17.40;65.90;;;;;;5034595;28;20170;-86
2022/07/02 00:57:34;;;;;;;6.32;2.47;;;17.40;66.50;;;;;;5036129;28;20281;-86
2022/07/02 01:00:00;;;;;;;2.55;2.00;;;17.40;66.20;;;;;;5037111;28;20525;-86
2022/07/02 01:02:27;;;;;;;4.03;2.30;;;17.40;65.80;;;;;;5040623;28;20264;-86
2022/07/02 01:04:52;;;;;;;3.90;2.05;;;17.40;65.80;;;;;;5042767;28;20232;-87
2022/07/02 01:07:20;;;;;;;7.20;2.30;;;17.40;66.00;;;;;;5042267;28;20189;-86
2022/07/02 01:12:34;;;;;;;2.85;2.55;;;17.30;66.50;;;;;;5036157;28;20238;-86
2022/07/02 01:15:00;;;;;;;2.53;1.90;;;17.30;66.50;;;;;;5037866;28;20177;-86
2022/07/02 01:17:26;;;;;;;2.57;2.10;;;17.30;65.80;;;;;;5035920;28;20202;-86
2022/07/02 01:19:53;;;;;;;3.70;2.15;;;17.40;65.30;;;;;;5035801;28;20185;-86
2022/07/02 01:22:19;;;;;;;3.30;1.85;;;17.30;64.60;;;;;;5040666;28;20188;-86
2022/07/02 01:24:47;;;;;;;4.87;1.90;;;17.30;64.60;;;;;;5037028;28;20689;-86
2022/07/02 01:27:13;;;;;;;11.15;1.80;;;17.30;64.30;;;;;;5036133;28;20198;-86
2022/07/02 01:29:39;;;;;;;5.53;1.80;;;17.30;64.50;;;;;;5024634;28;20244;-87
2022/07/02 01:32:06;;;;;;;3.33;1.77;;;17.30;63.80;;;;;;5044733;28;20493;-87
2022/07/02 01:34:41;;;;;;;5.90;1.77;;;17.30;63.90;;;;;;5045953;28;20409;-88
2022/07/02 01:37:08;;;;;;;6.38;1.63;;;17.30;63.80;;;;;;5043962;28;20588;-88
2022/07/02 01:39:35;;;;;;;4.10;1.98;;;17.40;63.20;;;;;;5027276;28;20185;-86
2022/07/02 01:42:00;;;;;;;3.70;1.67;;;17.40;63.20;;;;;;5040399;28;20193;-87
2022/07/02 01:44:26;;;;;;;3.13;1.70;;;17.40;63.30;;;;;;5037347;28;20182;-87
2022/07/02 01:46:53;;;;;;;3.57;1.43;;;17.40;62.80;;;;;;5035589;28;20229;-87
2022/07/02 01:49:18;;;;;;;2.83;2.20;;;17.40;62.40;;;;;;5034550;28;20186;-86
2022/07/02 01:51:47;;;;;;;2.80;1.87;;;17.50;62.70;;;;;;5036212;28;20689;-86
2022/07/02 01:54:14;;;;;;;2.08;1.38;;;17.50;62.30;;;;;;5034462;28;20159;-86
2022/07/02 01:56:39;;;;;;;3.70;1.67;;;17.40;62.30;;;;;;5021569;28;20217;-86
2022/07/02 01:59:06;;;;;;;3.67;1.50;;;17.50;62.20;;;;;;5015664;28;20179;-87
2022/07/02 02:01:32;;;;;;;3.53;1.70;;;17.50;62.10;;;;;;5014992;28;20174;-88
2022/07/02 02:03:58;;;;;;;8.27;1.90;;;17.50;62.50;;;;;;5017012;28;20321;-88
2022/07/02 02:06:24;;;;;;;2.67;1.65;;;17.50;62.50;;;;;;5025306;28;20485;-87
2022/07/02 02:08:50;;;;;;;2.87;1.67;;;17.50;62.50;;;;;;5021307;28;20241;-88
2022/07/02 02:11:15;;;;;;;3.25;1.40;;;17.50;62.70;;;;;;5030807;28;20548;-88
2022/07/02 02:13:41;;;;;;;3.77;1.50;;;17.50;62.80;;;;;;5014924;28;20228;-88
2022/07/02 02:16:07;;;;;;;4.63;1.80;;;17.50;62.60;;;;;;5014544;28;20491;-88
2022/07/02 02:18:33;;;;;;;4.70;2.07;;;17.50;62.60;;;;;;5004974;28;20219;-88
2022/07/02 02:20:59;;;;;;;2.22;1.90;;;17.50;62.90;;;;;;5025628;28;20166;-88
2022/07/02 02:23:24;;;;;;;3.70;1.73;;;17.50;63.20;;;;;;5045104;28;20189;-88
2022/07/02 02:25:50;;;;;;;4.73;1.97;;;17.40;63.00;;;;;;5044769;28;20189;-88
2022/07/02 02:28:16;;;;;;;8.13;2.03;;;17.40;62.50;;;;;;5055500;28;20197;-88
2022/07/02 02:30:42;;;;;;;4.43;2.13;;;17.40;63.30;;;;;;5056602;28;20206;-88
2022/07/02 02:33:08;;;;;;;5.10;1.87;;;17.40;63.00;;;;;;5039930;28;20447;-88
2022/07/02 02:35:34;;;;;;;4.63;1.87;;;17.40;62.90;;;;;;5056219;28;20444;-89
2022/07/02 02:37:59;;;;;;;3.60;1.87;;;17.40;62.70;;;;;;5049739;28;20443;-88
2022/07/02 02:40:25;;;;;;;3.57;1.90;;;17.40;62.60;;;;;;5039162;28;20312;-88
2022/07/02 02:42:51;;;;;;;6.67;1.80;;;17.40;62.60;;;;;;5033477;28;20185;-89
2022/07/02 02:45:17;;;;;;;2.90;1.83;;;17.40;63.00;;;;;;5033637;28;20412;-88
2022/07/02 02:47:42;;;;;;;5.47;1.60;;;17.40;62.90;;;;;;5033686;28;20831;-87
2022/07/02 02:50:08;;;;;;;6.07;2.47;;;17.40;63.70;;;;;;5034329;28;20420;-88
2022/07/02 02:52:34;;;;;;;3.40;1.80;;;17.40;63.60;;;;;;5036505;28;20184;-88
2022/07/02 02:55:00;;;;;;;6.33;1.80;;;17.40;63.20;;;;;;5040626;28;20417;-87
2022/07/02 02:57:27;;;;;;;6.07;2.10;;;17.40;62.90;;;;;;5040347;28;20276;-87
2022/07/02 02:59:52;;;;;;;3.28;1.75;;;17.40;63.40;;;;;;5041941;28;20368;-87
2022/07/02 03:02:18;;;;;;;3.47;2.10;;;17.40;63.00;;;;;;5042549;28;20178;-87
2022/07/02 03:04:44;;;;;;;6.70;1.97;;;17.40;62.90;;;;;;5036234;28;20191;-87
2022/07/02 03:07:10;;;;;;;4.80;2.00;;;17.40;63.80;;;;;;5026420;28;20202;-87
2022/07/02 03:09:35;;;;;;;3.17;1.90;;;17.40;63.10;;;;;;5018348;28;20182;-87
2022/07/02 03:12:01;;;;;;;3.87;1.90;;;17.40;62.90;;;;;;5013457;28;20209;-87
2022/07/02 03:14:27;;;;;;;4.10;2.10;;;17.40;63.30;;;;;;5013252;28;20733;-86
2022/07/02 03:16:53;;;;;;;4.07;1.87;;;17.40;63.10;;;;;;5014902;28;20201;-87
2022/07/02 03:19:18;;;;;;;5.40;2.47;;;17.40;63.10;;;;;;5017206;28;20233;-87
2022/07/02 03:21:44;;;;;;;3.93;2.47;;;17.40;63.20;;;;;;5018899;28;20415;-87
2022/07/02 03:24:10;;;;;;;2.20;1.80;;;17.30;63.70;;;;;;5017267;28;20201;-87
2022/07/02 03:26:35;;;;;;;2.37;1.80;;;17.30;63.90;;;;;;5017415;28;20274;-87
2022/07/02 03:29:01;;;;;;;8.20;2.37;;;17.20;63.60;;;;;;5019757;28;20182;-87
2022/07/02 03:31:27;;;;;;;3.50;1.70;;;17.20;64.00;;;;;;5023121;28;20214;-87
2022/07/02 03:33:53;;;;;;;5.50;2.00;;;17.20;64.50;;;;;;5022176;28;20194;-87
2022/07/02 03:36:18;;;;;;;4.97;2.00;;;17.20;64.50;;;;;;5028964;28;20174;-87
2022/07/02 03:38:44;;;;;;;6.80;1.90;;;17.20;64.40;;;;;;5037912;28;20695;-87
2022/07/02 03:41:10;;;;;;;3.37;1.83;;;17.20;64.30;;;;;;5036326;28;20177;-88
2022/07/02 03:43:35;;;;;;;6.80;2.57;;;17.20;64.40;;;;;;5036765;28;20591;-88
2022/07/02 03:46:02;;;;;;;3.03;1.63;;;17.20;64.50;;;;;;5036697;28;20273;-88
2022/07/02 03:48:28;;;;;;;13.00;2.58;;;17.20;64.40;;;;;;5038356;28;20198;-88
2022/07/02 03:50:54;;;;;;;4.03;1.87;;;17.20;64.80;;;;;;5036525;28;20201;-88
2022/07/02 03:53:19;;;;;;;6.83;2.33;;;17.30;64.70;;;;;;5037793;28;20178;-88
2022/07/02 03:55:46;;;;;;;3.83;1.70;;;17.30;65.10;;;;;;5042512;28;20181;-86
2022/07/02 03:58:11;;;;;;;3.67;1.52;;;17.40;65.40;;;;;;5047668;28;20671;-85
2022/07/02 04:00:37;;;;;;;4.40;2.10;;;17.40;65.80;;;;;;5050194;28;20209;-87
2022/07/02 04:03:03;;;;;;;4.20;2.20;;;17.40;65.30;;;;;;5038150;28;20178;-87
2022/07/02 04:05:30;;;;;;;4.47;1.93;;;17.40;65.60;;;;;;5039439;28;20320;-87
2022/07/02 04:07:55;;;;;;;2.47;1.75;;;17.40;64.70;;;;;;5046841;28;20208;-87
2022/07/02 04:10:21;;;;;;;3.30;1.70;;;17.50;64.00;;;;;;5048646;28;20221;-88
2022/07/02 04:12:47;;;;;;;4.40;1.87;;;17.60;62.40;;;;;;5053872;28;20244;-87
2022/07/02 04:15:13;;;;;;;4.72;2.60;;;17.70;62.00;;;;;;5044637;28;20181;-89
2022/07/02 04:17:39;;;;;;;3.07;1.63;;;17.60;62.00;;;;;;5046232;28;20241;-87
2022/07/02 04:20:05;;;;;;;2.53;1.53;;;17.70;62.40;;;;;;5056217;28;20420;-88
2022/07/02 04:22:31;;;;;;;4.50;2.22;;;17.70;61.90;;;;;;5055547;28;20162;-88
2022/07/02 04:24:57;;;;;;;6.37;2.30;;;17.70;62.00;;;;;;5050692;28;20178;-89
2022/07/02 04:27:22;;;;;;;3.97;1.83;;;17.70;61.60;;;;;;5045937;28;20257;-89
2022/07/02 04:29:48;;;;;;;3.13;1.87;;;17.70;62.20;;;;;;5043501;28;20170;-89
2022/07/02 04:32:14;;;;;;;2.43;1.77;;;17.70;61.70;;;;;;5042634;28;20209;-89
2022/07/02 04:34:40;;;;;;;3.47;1.83;;;17.80;61.20;;;;;;5039704;28;20550;-89
2022/07/02 04:37:06;;;;;;;4.75;1.70;;;17.80;61.40;;;;;;5039788;28;20344;-89
2022/07/02 04:39:32;;;;;;;3.63;1.90;;;17.80;61.70;;;;;;5041492;28;20218;-89
2022/07/02 04:41:58;;;;;;;2.87;1.70;;;17.80;61.50;;;;;;5041296;28;20427;-89
2022/07/02 04:44:24;;;;;;;3.85;1.70;;;17.80;61.60;;;;;;5045362;28;20621;-88
2022/07/02 04:46:50;;;;;;;4.05;1.88;;;17.80;61.70;;;;;;5051737;28;20209;-89
2022/07/02 04:49:16;;;;;;;2.47;1.83;;;17.90;61.70;;;;;;5057781;28;20182;-88
2022/07/02 04:51:42;;;;;;;3.47;2.05;;;17.90;61.70;;;;;;5057503;28;20475;-89
2022/07/02 04:54:08;;;;;;;3.67;1.67;;;18.00;61.60;;;;;;5057736;28;20253;-89
2022/07/02 04:56:34;;;;;;;2.63;1.60;;;18.00;61.40;;;;;;5056172;28;20233;-89
2022/07/02 04:59:00;;;;;;;5.30;2.33;;;18.00;62.20;;;;;;5054297;28;20428;-90
2022/07/02 05:01:25;;;;;;;3.47;1.77;;;18.00;62.10;;;;;;5040291;28;20180;-88
2022/07/02 05:03:52;;;;;;;3.20;2.17;;;18.00;62.10;;;;;;5035349;28;20786;-87
2022/07/02 05:06:19;;;;;;;3.83;1.98;;;18.00;62.10;;;;;;5036781;28;20546;-88
2022/07/02 05:08:47;;;;;;;3.33;1.83;;;18.00;62.30;;;;;;5018519;28;20665;-87
2022/07/02 05:11:15;;;;;;;6.20;2.20;;;18.00;62.70;;;;;;5035046;28;20213;-88
2022/07/02 05:13:42;;;;;;;4.15;2.50;;;18.10;62.90;;;;;;5034413;28;20182;-88
2022/07/02 05:16:08;;;;;;;6.95;2.80;;;18.20;62.40;;;;;;5034992;28;20654;-87
2022/07/02 05:18:34;;;;;;;3.10;2.07;;;18.40;61.90;;;;;;5034566;28;20202;-88
2022/07/02 05:21:00;;;;;;;4.13;2.00;;;18.70;61.90;;;;;;5035245;28;20719;-88
2022/07/02 05:23:36;;;;;;;1.90;1.53;;;19.10;61.80;;;;;;5034780;28;20174;-88
2022/07/02 05:26:02;;;;;;;4.53;1.95;;;19.70;59.40;;;;;;5034489;28;20184;-88
2022/07/02 05:28:28;;;;;;;3.00;1.90;;;19.90;57.60;;;;;;5035917;28;20193;-88
2022/07/02 05:30:54;;;;;;;4.07;1.67;;;19.90;56.60;;;;;;5034991;28;20213;-88
2022/07/02 05:33:20;;;;;;;3.10;1.60;;;20.20;56.60;;;;;;5036185;28;20241;-88
2022/07/02 05:35:46;;;;;;;3.10;1.50;;;20.90;55.10;;;;;;5040875;28;20921;-88
2022/07/02 05:38:12;;;;;;;2.50;1.43;;;22.10;51.50;;;;;;5041473;28;20208;-87
2022/07/02 05:40:38;;;;;;;4.13;1.70;;;23.40;48.00;;;;;;5036709;28;20425;-87
2022/07/02 05:43:04;;;;;;;4.60;2.00;;;24.50;43.40;;;;;;5036697;28;20955;-88
2022/07/02 05:45:30;;;;;;;2.90;1.60;;;25.40;40.80;;;;;;5045287;28;20185;-87
2022/07/02 05:47:58;;;;;;;6.03;1.60;;;26.10;38.40;;;;;;5050888;28;20197;-88
2022/07/02 05:50:23;;;;;;;3.00;1.90;;;26.60;37.00;;;;;;5049133;28;20502;-89
2022/07/02 05:52:49;;;;;;;4.30;1.80;;;27.10;36.10;;;;;;5043774;28;20425;-89
2022/07/02 05:55:15;;;;;;;2.70;1.40;;;27.40;34.70;;;;;;5046115;28;20200;-88
2022/07/02 05:57:40;;;;;;;2.20;1.70;;;27.60;33.60;;;;;;5054240;28;20198;-87
2022/07/02 06:00:08;;;;;;;3.30;1.50;;;27.50;33.50;;;;;;5054853;28;20190;-87
2022/07/02 06:02:34;;;;;;;1.97;1.47;;;27.50;33.50;;;;;;5053886;28;20189;-88
2022/07/02 06:07:38;;;;;;;3.63;1.50;;;27.40;33.20;;;;;;5039159;28;20420;-88
2022/07/02 06:07:45;;;;;;;2.23;1.40;;;27.30;33.10;;;;;;5038472;28;20444;-87
2022/07/02 06:10:17;;;;;;;1.30;1.17;;;27.20;33.00;;;;;;5038874;28;20555;-86
2022/07/02 06:12:45;;;;;;;3.10;1.33;;;27.00;33.50;;;;;;5018859;28;20171;-87
2022/07/02 06:15:11;;;;;;;4.47;1.50;;;27.00;33.20;;;;;;5018828;28;20412;-87
2022/07/02 06:17:36;;;;;;;2.60;1.47;;;26.90;32.80;;;;;;5014466;28;20441;-86
2022/07/02 06:20:02;;;;;;;2.27;1.20;;;27.00;32.80;;;;;;5017057;28;20423;-87
2022/07/02 06:22:28;;;;;;;2.80;1.17;;;27.20;31.50;;;;;;5016423;28;20240;-87
2022/07/02 06:24:55;;;;;;;2.50;1.40;;;27.20;31.30;;;;;;5014467;28;20540;-86
2022/07/02 06:27:22;;;;;;;3.80;1.30;;;27.30;31.20;;;;;;5016567;28;20198;-86
2022/07/02 06:29:48;;;;;;;2.13;1.40;;;27.50;31.10;;;;;;5018562;28;20396;-87
2022/07/02 06:32:17;;;;;;;2.03;1.30;;;27.60;30.40;;;;;;5014287;28;20530;-86
2022/07/02 06:34:47;;;;;;;2.33;1.30;;;27.70;30.80;;;;;;5018699;28;20392;-86
2022/07/02 06:37:13;;;;;;;3.87;1.10;;;27.80;30.00;;;;;;5030778;28;20435;-85
2022/07/02 06:39:39;;;;;;;1.87;1.40;;;28.10;30.00;;;;;;5035436;28;20795;-85
2022/07/02 06:42:20;;;;;;;2.10;1.23;;;28.10;30.00;;;;;;5035915;28;20186;-85
2022/07/02 06:44:47;;;;;;;2.37;1.30;;;28.10;30.00;;;;;;5035794;28;20268;-86
2022/07/02 06:47:14;;;;;;;2.07;1.30;;;28.30;30.00;;;;;;5033859;28;20448;-86
2022/07/02 06:49:40;;;;;;;1.20;1.00;;;28.10;30.00;;;;;;5034995;28;20424;-86
2022/07/02 06:52:07;;;;;;;1.43;1.20;;;27.90;30.00;;;;;;5035249;28;20980;-86
2022/07/02 06:54:33;;;;;;;3.37;1.30;;;27.80;30.00;;;;;;5022216;28;20431;-86
2022/07/02 06:56:59;;;;;;;1.93;1.30;;;27.60;30.00;;;;;;5038770;28;20836;-87
2022/07/02 06:59:25;;;;;;;1.87;1.20;;;27.50;30.00;;;;;;5037434;28;20509;-87
2022/07/02 07:01:51;;;;;;;1.40;1.10;;;27.60;30.00;;;;;;5039121;28;20390;-87
2022/07/02 07:04:17;;;;;;;2.37;1.57;;;27.70;30.00;;;;;;5040282;28;20803;-87
2022/07/02 07:06:43;;;;;;;1.50;1.10;;;27.50;30.00;;;;;;5049076;28;20202;-89
2022/07/02 07:09:09;;;;;;;2.80;1.20;;;27.50;30.00;;;;;;5059812;28;20193;-89
2022/07/02 07:11:35;;;;;;;2.50;1.30;;;27.50;30.00;;;;;;5060286;28;20464;-89
2022/07/02 07:14:01;;;;;;;11.90;2.80;;;27.30;30.00;;;;;;5059763;28;20177;-88
2022/07/02 07:16:27;;;;;;;1.70;1.23;;;27.20;35.30;;;;;;5059781;28;20419;-89
2022/07/02 07:21:18;;;;;;;1.73;1.10;;;27.20;38.10;;;;;;5050735;28;20760;-89
2022/07/02 07:23:44;;;;;;;2.60;1.10;;;26.70;42.50;;;;;;5046429;28;20174;-89
2022/07/02 07:26:10;;;;;;;3.20;1.40;;;26.60;38.80;;;;;;5043649;28;20570;-89
2022/07/02 07:28:35;;;;;;;1.67;1.03;;;26.70;37.00;;;;;;5039929;28;20225;-89
2022/07/02 07:31:01;;;;;;;3.00;0.97;;;26.80;37.70;;;;;;5037751;28;20220;-89
2022/07/02 07:33:27;;;;;;;1.23;1.03;;;26.80;35.90;;;;;;5039900;28;20538;-88
2022/07/02 07:35:52;;;;;;;1.40;1.07;;;26.60;38.50;;;;;;5038914;28;20178;-89
2022/07/02 07:38:18;;;;;;;1.93;1.00;;;26.30;31.80;;;;;;5055004;28;20193;-89
2022/07/02 07:40:44;;;;;;;7.10;1.60;;;25.90;33.30;;;;;;5057972;28;20214;-89
2022/07/02 07:43:09;;;;;;;2.43;1.40;;;25.40;37.60;;;;;;5041230;28;20278;-89
2022/07/02 07:45:35;;;;;;;1.73;1.10;;;25.00;36.10;;;;;;5040091;28;20231;-89
2022/07/02 07:48:11;;;;;;;3.87;1.43;;;24.70;34.80;;;;;;5039542;28;20673;-88
2022/07/02 07:50:37;;;;;;;1.20;1.00;;;24.30;35.50;;;;;;5050049;28;20198;-89
2022/07/02 07:53:02;;;;;;;1.93;1.20;;;23.90;37.40;;;;;;5058119;28;20448;-89
2022/07/02 07:55:28;;;;;;;1.53;1.20;;;23.60;39.70;;;;;;5053118;28;20182;-89
2022/07/02 07:57:54;;;;;;;3.00;1.40;;;23.50;40.00;;;;;;5039341;28;20194;-88
2022/07/02 08:00:20;;;;;;;6.10;1.50;;;23.20;41.20;;;;;;5041107;28;20185;-88
2022/07/02 08:02:45;;;;;;;2.53;1.10;;;23.10;41.70;;;;;;5044630;28;20182;-88
2022/07/02 08:05:11;;;;;;;3.33;1.40;;;22.80;43.00;;;;;;5043256;28;20185;-89
2022/07/02 08:07:38;;;;;;;2.10;1.50;;;22.80;42.90;;;;;;5036515;28;20207;-88
2022/07/02 08:10:09;;;;;;;1.80;1.30;;;22.60;43.50;;;;;;5055935;28;20174;-89
2022/07/02 08:12:36;;;;;;;2.33;1.10;;;22.50;44.20;;;;;;5055853;28;20447;-88
2022/07/02 08:15:03;;;;;;;3.40;1.20;;;22.40;43.90;;;;;;5047237;28;20432;-88
2022/07/02 08:17:29;;;;;;;2.13;1.57;;;22.30;44.60;;;;;;5048284;28;20447;-89
2022/07/02 08:19:56;;;;;;;5.33;1.20;;;22.40;44.50;;;;;;5047316;28;20412;-87
2022/07/02 08:22:23;;;;;;;3.00;1.70;;;22.40;44.90;;;;;;5045522;28;20420;-88
2022/07/02 08:24:50;;;;;;;2.60;1.33;;;22.40;43.80;;;;;;5014206;28;20444;-88
2022/07/02 08:27:16;;;;;;;3.03;1.40;;;22.40;44.20;;;;;;5043418;28;20451;-90
2022/07/02 08:29:42;;;;;;;1.80;1.40;;;22.50;45.00;;;;;;5046326;28;20517;-89
2022/07/02 08:32:08;;;;;;;3.10;1.23;;;22.50;44.80;;;;;;5044499;28;20471;-90
2022/07/02 08:34:34;;;;;;;2.77;1.43;;;22.50;45.10;;;;;;5039255;28;20182;-87
2022/07/02 08:37:00;;;;;;;2.10;1.30;;;22.50;44.20;;;;;;5038103;28;20206;-87
2022/07/02 08:39:26;;;;;;;4.83;1.30;;;22.50;44.20;;;;;;5038176;28;20421;-88
2022/07/02 08:41:53;;;;;;;4.83;1.30;;;22.50;45.10;;;;;;5038554;28;20185;-90
2022/07/02 08:44:24;;;;;;;4.33;1.50;;;22.60;44.40;;;;;;5038741;28;20482;-87
2022/07/02 08:46:51;;;;;;;3.77;1.30;;;22.60;43.80;;;;;;5024825;28;20444;-88
2022/07/02 08:49:21;;;;;;;1.60;1.30;;;22.60;44.60;;;;;;5043574;28;20420;-88
2022/07/02 08:51:54;;;;;;;3.00;1.37;;;22.50;43.70;;;;;;5043547;28;20550;-88
2022/07/02 08:54:22;;;;;;;1.40;1.00;;;22.50;43.10;;;;;;5040867;28;20970;-88
2022/07/02 08:56:50;;;;;;;1.97;1.20;;;22.50;44.20;;;;;;5037731;28;20479;-88
2022/07/02 08:59:20;;;;;;;1.93;1.30;;;22.50;43.40;;;;;;5037624;28;20771;-88
2022/07/02 09:01:47;;;;;;;2.93;1.20;;;22.60;43.70;;;;;;5037788;28;20460;-88
2022/07/02 09:04:18;;;;;;;2.93;1.20;;;22.50;43.70;;;;;;5035534;28;20421;-88
2022/07/02 09:06:47;;;;;;;3.77;1.00;;;22.40;43.20;;;;;;5019368;28;20465;-88
2022/07/02 09:09:15;;;;;;;2.90;1.27;;;22.40;43.70;;;;;;5018286;28;20905;-88
2022/07/02 09:11:41;;;;;;;2.73;1.20;;;22.40;45.20;;;;;;5017783;28;20476;-88
2022/07/02 09:14:07;;;;;;;1.87;1.40;;;22.50;44.60;;;;;;5016793;28;20789;-88
2022/07/02 09:16:34;;;;;;;1.83;1.20;;;22.50;44.60;;;;;;5018017;28;20281;-88
2022/07/02 09:19:00;;;;;;;1.60;1.10;;;22.60;43.80;;;;;;5018431;28;20468;-88
2022/07/02 09:21:26;;;;;;;2.27;1.20;;;22.60;42.90;;;;;;5019283;28;20917;-89
2022/07/02 09:23:52;;;;;;;8.00;1.60;;;22.70;42.50;;;;;;5017780;28;20413;-88
2022/07/02 09:26:22;;;;;;;2.63;1.10;;;22.60;42.90;;;;;;5037556;28;20416;-88
2022/07/02 09:28:59;;;;;;;1.97;1.17;;;22.70;43.60;;;;;;5054186;28;20162;-88
2022/07/02 09:31:28;;;;;;;1.93;1.10;;;22.70;43.50;;;;;;5055817;28;20475;-89
2022/07/02 09:33:54;;;;;;;5.03;1.13;;;22.70;42.00;;;;;;5057992;28;20436;-89
2022/07/02 09:36:21;;;;;;;3.87;1.57;;;22.70;42.90;;;;;;5040770;28;20448;-89
2022/07/02 09:38:50;;;;;;;3.67;1.60;;;22.80;43.50;;;;;;5056697;28;20435;-89
2022/07/02 09:41:21;;;;;;;3.60;1.23;;;22.80;42.20;;;;;;5054171;28;20401;-90
2022/07/02 09:43:59;;;;;;;2.03;1.20;;;22.80;42.10;;;;;;5046440;28;20455;-89
2022/07/02 09:46:25;;;;;;;3.27;1.40;;;22.80;43.40;;;;;;5052845;28;20468;-89
2022/07/02 09:48:51;;;;;;;4.30;1.40;;;22.80;44.40;;;;;;5039480;28;20479;-88
2022/07/02 09:51:18;;;;;;;2.27;1.60;;;22.90;43.40;;;;;;5040337;28;20471;-89
2022/07/02 09:53:52;;;;;;;2.50;1.10;;;22.90;41.80;;;;;;5041070;28;20443;-90
2022/07/02 09:56:23;;;;;;;4.53;1.83;;;22.90;41.60;;;;;;5039013;28;20503;-89
2022/07/02 09:58:49;;;;;;;2.47;1.10;;;23.00;42.40;;;;;;5037928;28;20451;-89
2022/07/02 10:01:22;;;;;;;2.00;1.10;;;23.10;41.30;;;;;;5036504;28;20469;-89
2022/07/02 10:03:53;;;;;;;2.83;1.50;;;23.10;43.90;;;;;;5036647;28;20450;-89
2022/07/02 10:06:19;;;;;;;3.10;1.63;;;23.40;42.20;;;;;;5035647;28;20412;-89
2022/07/02 10:08:46;;;;;;;2.80;1.40;;;23.70;42.00;;;;;;5035820;28;20433;-89
2022/07/02 10:11:13;;;;;;;3.90;1.53;;;24.00;40.70;;;;;;5038928;28;20486;-89
2022/07/02 10:13:41;;;;;;;1.67;1.30;;;24.10;39.90;;;;;;5039952;28;20409;-89
2022/07/02 10:16:15;;;;;;;3.27;1.30;;;24.10;39.30;;;;;;5041989;28;20424;-90
2022/07/02 10:18:42;;;;;;;3.33;1.50;;;24.00;39.30;;;;;;5042954;28;20432;-90
2022/07/02 10:21:11;;;;;;;2.47;1.30;;;24.20;39.40;;;;;;5041053;28;20425;-90
2022/07/02 10:23:39;;;;;;;4.70;1.40;;;24.30;39.10;;;;;;5023993;28;20572;-90
2022/07/02 10:26:05;;;;;;;2.53;1.47;;;24.40;38.90;;;;;;5018116;28;20422;-88
2022/07/02 10:28:30;;;;;;;3.43;1.60;;;24.50;38.10;;;;;;5020804;28;20464;-90
2022/07/02 10:30:57;;;;;;;3.00;1.33;;;24.60;38.00;;;;;;5015024;28;20476;-90
2022/07/02 10:33:35;;;;;;;1.40;1.20;;;24.70;37.30;;;;;;5017283;28;20182;-89
2022/07/02 10:36:03;;;;;;;2.03;1.47;;;24.70;37.50;;;;;;5024516;28;20426;-89
2022/07/02 10:38:39;;;;;;;3.30;1.47;;;24.80;37.80;;;;;;5046023;28;20539;-90
2022/07/02 10:41:12;;;;;;;3.33;1.50;;;24.90;35.70;;;;;;5048341;28;20420;-89
2022/07/02 10:43:41;;;;;;;6.03;1.80;;;24.90;34.90;;;;;;5039583;28;20462;-89
2022/07/02 10:46:09;;;;;;;3.03;1.90;;;24.90;35.00;;;;;;5024620;28;20429;-89
2022/07/02 10:48:47;;;;;;;1.70;1.43;;;25.00;35.40;;;;;;5041002;28;20441;-89
2022/07/02 10:51:31;;;;;;;2.60;1.30;;;25.20;35.10;;;;;;5043685;28;20453;-89
2022/07/02 10:54:08;;;;;;;2.50;1.40;;;25.40;36.10;;;;;;5042659;28;20422;-88
2022/07/02 10:56:49;;;;;;;4.17;1.30;;;25.50;34.80;;;;;;5043196;28;20417;-89
2022/07/02 10:59:22;;;;;;;1.80;1.30;;;25.60;33.50;;;;;;5043218;28;20492;-89
2022/07/02 11:01:59;;;;;;;2.87;1.40;;;25.60;35.60;;;;;;5042992;28;20453;-89
2022/07/02 11:04:24;;;;;;;3.20;1.37;;;25.80;34.10;;;;;;5037657;28;20415;-89
2022/07/02 11:07:04;;;;;;;4.73;1.40;;;25.60;33.60;;;;;;5034531;28;20514;-89
2022/07/02 11:09:30;;;;;;;1.77;1.40;;;25.60;33.70;;;;;;5034623;28;20205;-89
2022/07/02 11:12:05;;;;;;;3.17;1.20;;;25.50;34.00;;;;;;5034848;28;20536;-90
2022/07/02 11:14:32;;;;;;;3.73;1.20;;;25.40;33.70;;;;;;5035972;28;20179;-89
2022/07/02 11:16:58;;;;;;;2.93;1.20;;;25.40;33.30;;;;;;5039654;28;20429;-88
2022/07/02 11:19:29;;;;;;;1.97;1.00;;;25.40;33.40;;;;;;5044215;28;20490;-89
2022/07/02 11:21:57;;;;;;;4.30;1.53;;;25.40;33.10;;;;;;5036802;28;20430;-89
2022/07/02 11:24:27;;;;;;;1.30;1.00;;;25.60;33.30;;;;;;5047476;28;20418;-89
2022/07/02 11:26:53;;;;;;;2.43;1.30;;;25.70;33.30;;;;;;5040364;28;20836;-88
2022/07/02 11:29:20;;;;;;;2.53;1.13;;;25.90;33.10;;;;;;5038890;28;20787;-88
2022/07/02 11:31:50;;;;;;;3.83;1.20;;;26.00;33.40;;;;;;5048867;28;20465;-88
2022/07/02 11:34:31;;;;;;;2.93;1.27;;;26.10;32.50;;;;;;5040472;28;20427;-87
2022/07/02 11:36:57;;;;;;;1.60;1.00;;;26.10;32.80;;;;;;5054605;28;20436;-88
2022/07/02 11:39:25;;;;;;;2.80;1.10;;;26.10;33.60;;;;;;5056580;28;20420;-87
2022/07/02 11:41:51;;;;;;;1.67;1.13;;;26.20;32.10;;;;;;5059911;28;20410;-88
2022/07/02 11:44:26;;;;;;;1.60;1.03;;;26.10;31.70;;;;;;5059418;28;20511;-88
2022/07/02 11:46:54;;;;;;;1.23;1.10;;;26.00;32.60;;;;;;5058688;28;20635;-87
2022/07/02 11:49:44;;;;;;;1.30;1.10;;;26.00;33.00;;;;;;5060196;28;20415;-87
2022/07/02 11:52:10;;;;;;;4.43;1.30;;;26.00;32.90;;;;;;5058995;28;20492;-87
2022/07/02 11:54:40;;;;;;;2.37;1.13;;;25.90;35.20;;;;;;5058321;28;20465;-87
2022/07/02 11:57:11;;;;;;;2.43;1.20;;;26.10;34.40;;;;;;5043217;28;20221;-88
2022/07/02 11:59:36;;;;;;;2.13;1.17;;;26.10;33.50;;;;;;5044818;28;20428;-86
2022/07/02 12:02:02;;;;;;;1.63;1.10;;;26.00;33.20;;;;;;5038250;28;20431;-87
2022/07/02 12:04:28;;;;;;;1.47;1.30;;;25.90;32.70;;;;;;5038454;28;20224;-87
2022/07/02 12:06:57;;;;;;;2.53;1.20;;;25.90;33.20;;;;;;5038147;28;20993;-87
2022/07/02 12:09:25;;;;;;;1.30;1.10;;;26.00;34.30;;;;;;5042097;28;20187;-87
2022/07/02 12:11:55;;;;;;;2.60;1.37;;;26.00;33.70;;;;;;5021305;28;20471;-88
2022/07/02 12:14:28;;;;;;;3.57;1.20;;;26.20;33.70;;;;;;5036857;28;20424;-88
2022/07/02 12:16:54;;;;;;;4.20;1.30;;;26.30;33.10;;;;;;5036685;28;20463;-89
2022/07/02 12:19:27;;;;;;;5.07;1.90;;;26.30;32.80;;;;;;5037347;28;20472;-88
2022/07/02 12:21:53;;;;;;;1.80;1.40;;;26.40;33.40;;;;;;5037490;28;20181;-89
2022/07/02 12:24:19;;;;;;;2.50;1.43;;;26.50;32.40;;;;;;5022213;28;20428;-90
2022/07/02 12:26:46;;;;;;;2.67;1.37;;;26.30;34.70;;;;;;5037034;28;20204;-89
2022/07/02 12:32:27;;;;;;;3.30;1.50;;;26.00;36.30;;;;;;5038084;28;20555;-89
2022/07/02 12:35:03;;;;;;;3.40;1.23;;;26.10;34.30;;;;;;5036953;28;20934;-90
2022/07/02 12:37:51;;;;;;;1.20;1.10;;;26.00;34.10;;;;;;5037886;28;20562;-89
2022/07/02 12:40:21;;;;;;;1.73;1.27;;;25.80;36.30;;;;;;5036128;28;20838;-89
2022/07/02 12:42:57;;;;;;;1.33;1.20;;;25.80;34.30;;;;;;5037263;28;20409;-89
2022/07/02 12:45:30;;;;;;;3.03;1.43;;;25.80;35.80;;;;;;5036776;28;20411;-89
2022/07/02 12:48:11;;;;;;;1.20;1.10;;;25.80;34.60;;;;;;5036922;28;20459;-89
2022/07/02 12:50:42;;;;;;;1.50;1.37;;;25.70;36.50;;;;;;5036573;28;22337;-88
2022/07/02 12:53:09;;;;;;;1.60;1.07;;;25.50;36.60;;;;;;5036452;28;20481;-88
2022/07/02 12:55:51;;;;;;;2.20;1.10;;;25.50;36.30;;;;;;5038141;28;20454;-88